Time;durP1;ratioP1;P1;durP2;ratioP2;P2;SDS_P1;SDS_P2;PMS_P1;PMS_P2;Temp;Humidity;BMP_temperature;BMP_pressure;BME280_temperature;BME280_humidity;BME280_pressure;Samples;Min_cycle;Max_cycle;Signal;HPM_P1;HPM_P2
2023/02/11 00:00:34;;;;;;;97.70;46.92;;;6.50;99.90;;;;;;5051953;28;20067;-68
2023/02/11 00:03:00;;;;;;;95.00;44.53;;;6.50;99.90;;;;;;5052942;28;20033;-68
2023/02/11 00:05:25;;;;;;;92.85;43.53;;;6.50;99.90;;;;;;5052902;28;20443;-68
2023/02/11 00:07:51;;;;;;;93.75;45.47;;;6.50;99.90;;;;;;5055200;28;20100;-69
2023/02/11 00:10:16;;;;;;;95.40;43.30;;;6.50;99.90;;;;;;5056844;28;20016;-69
2023/02/11 00:12:42;;;;;;;91.97;43.97;;;6.40;99.90;;;;;;5057065;28;20035;-68
2023/02/11 00:15:08;;;;;;;96.97;44.30;;;6.40;99.90;;;;;;5056814;28;20071;-69
2023/02/11 00:17:34;;;;;;;100.22;43.53;;;6.40;99.90;;;;;;5056826;28;20021;-68
2023/02/11 00:19:59;;;;;;;86.40;42.10;;;6.30;99.90;;;;;;5056763;28;20029;-68
2023/02/11 00:22:25;;;;;;;90.90;44.45;;;6.40;99.90;;;;;;5056751;28;20399;-68
2023/02/11 00:24:50;;;;;;;91.47;44.45;;;6.30;99.90;;;;;;5056727;28;20067;-68
2023/02/11 00:27:16;;;;;;;91.40;42.58;;;6.30;99.90;;;;;;5056774;28;20013;-68
2023/02/11 00:29:41;;;;;;;98.15;44.90;;;6.30;99.90;;;;;;5056661;28;20025;-68
2023/02/11 00:32:07;;;;;;;89.07;43.80;;;6.40;99.90;;;;;;5056725;28;20025;-68
2023/02/11 00:34:34;;;;;;;88.80;44.00;;;6.40;99.90;;;;;;5056536;28;20386;-69
2023/02/11 00:37:00;;;;;;;99.18;44.40;;;6.40;99.90;;;;;;5055444;28;20133;-69
2023/02/11 00:39:26;;;;;;;92.18;43.70;;;6.40;99.90;;;;;;5056447;28;20025;-68
2023/02/11 00:41:51;;;;;;;89.43;42.78;;;6.40;99.90;;;;;;5055500;28;20188;-68
2023/02/11 00:44:17;;;;;;;91.22;43.53;;;6.40;99.90;;;;;;5056404;28;20120;-68
2023/02/11 00:46:43;;;;;;;88.15;43.25;;;6.40;99.90;;;;;;5055899;28;20053;-68
2023/02/11 00:49:08;;;;;;;89.57;43.00;;;6.40;99.90;;;;;;5056176;28;20025;-68
2023/02/11 00:51:34;;;;;;;89.55;42.80;;;6.40;99.90;;;;;;5056348;28;20141;-68
2023/02/11 00:53:59;;;;;;;82.20;42.13;;;6.40;99.90;;;;;;5056146;28;20108;-68
2023/02/11 00:56:26;;;;;;;85.22;40.97;;;6.40;99.90;;;;;;5055888;28;20029;-68
2023/02/11 00:58:52;;;;;;;85.28;42.22;;;6.40;99.90;;;;;;5056127;28;20027;-68
2023/02/11 01:01:18;;;;;;;85.90;40.88;;;6.40;99.90;;;;;;5055759;28;20055;-69
2023/02/11 01:03:44;;;;;;;81.53;41.78;;;6.50;99.90;;;;;;5055891;28;20028;-68
2023/02/11 01:06:10;;;;;;;89.93;42.42;;;6.50;99.90;;;;;;5055864;28;20535;-68
2023/02/11 01:08:36;;;;;;;88.80;43.42;;;6.50;99.90;;;;;;5055799;28;20029;-69
2023/02/11 01:11:05;;;;;;;88.82;41.92;;;6.50;99.90;;;;;;5055971;28;20029;-68
2023/02/11 01:13:33;;;;;;;88.20;42.00;;;6.50;99.90;;;;;;5054683;28;20025;-68
2023/02/11 01:15:59;;;;;;;86.55;42.47;;;6.50;99.90;;;;;;5054614;28;20510;-68
2023/02/11 01:18:25;;;;;;;80.03;40.15;;;6.50;99.90;;;;;;5055473;28;20032;-68
2023/02/11 01:20:52;;;;;;;84.43;40.05;;;6.50;99.90;;;;;;5055553;28;20044;-68
2023/02/11 01:23:18;;;;;;;83.25;42.45;;;6.50;99.90;;;;;;5055541;28;20032;-68
2023/02/11 01:25:44;;;;;;;86.35;41.60;;;6.50;99.90;;;;;;5055650;28;20020;-68
2023/02/11 01:28:16;;;;;;;83.65;40.67;;;6.60;99.90;;;;;;5055241;28;20021;-68
2023/02/11 01:30:41;;;;;;;85.75;41.53;;;6.50;99.90;;;;;;5055447;28;20437;-68
2023/02/11 01:33:07;;;;;;;97.10;42.10;;;6.50;99.90;;;;;;5055393;28;20025;-68
2023/02/11 01:35:33;;;;;;;84.35;40.03;;;6.50;99.90;;;;;;5055369;28;20028;-69
2023/02/11 01:37:58;;;;;;;79.10;39.63;;;6.50;99.90;;;;;;5055354;28;20060;-68
2023/02/11 01:40:24;;;;;;;84.80;41.58;;;6.50;99.90;;;;;;5055555;28;20043;-69
2023/02/11 01:42:49;;;;;;;79.30;39.28;;;6.50;99.90;;;;;;5055190;28;20098;-68
2023/02/11 01:45:47;;;;;;;77.60;40.40;;;6.40;99.90;;;;;;5054874;28;20044;-68
2023/02/11 01:48:19;;;;;;;80.13;40.55;;;6.40;99.90;;;;;;5055039;28;20390;-69
2023/02/11 01:50:47;;;;;;;78.15;38.03;;;6.50;99.90;;;;;;5053855;28;20028;-70
2023/02/11 01:58:50;;;;;;;85.25;39.17;;;6.40;99.90;;;;;;5054745;28;20036;-68
2023/02/11 02:01:22;;;;;;;92.68;41.20;;;6.40;99.90;;;;;;5054802;28;20504;-68
2023/02/11 02:03:49;;;;;;;75.72;38.92;;;6.40;99.90;;;;;;5054981;28;20028;-69
2023/02/11 02:06:24;;;;;;;75.53;38.53;;;6.40;99.90;;;;;;5053445;28;20029;-68
2023/02/11 02:09:00;;;;;;;81.78;39.45;;;6.40;99.90;;;;;;5054675;28;20075;-68
2023/02/11 02:11:26;;;;;;;78.40;39.53;;;6.40;99.90;;;;;;5054785;28;20024;-68
2023/02/11 02:13:52;;;;;;;82.60;38.22;;;6.40;99.90;;;;;;5053391;28;20029;-68
2023/02/11 02:16:20;;;;;;;78.15;38.75;;;6.40;99.90;;;;;;5054531;28;20033;-68
2023/02/11 02:19:26;;;;;;;79.45;38.22;;;6.40;99.90;;;;;;5054433;28;20047;-68
2023/02/11 02:22:26;;;;;;;73.88;36.45;;;6.50;99.90;;;;;;5054280;28;20086;-69
2023/02/11 02:27:55;;;;;;;69.07;37.00;;;6.50;99.90;;;;;;5111239;27;20380;-67
2023/02/11 02:30:54;;;;;;;69.88;35.53;;;6.50;99.90;;;;;;5111282;28;20024;-67
2023/02/11 02:33:42;;;;;;;83.07;36.67;;;6.50;99.90;;;;;;5110875;28;20024;-66
2023/02/11 02:36:33;;;;;;;80.60;35.30;;;6.50;99.90;;;;;;5111116;28;20077;-67
2023/02/11 02:39:06;;;;;;;68.85;34.45;;;6.50;99.90;;;;;;5110861;28;20028;-67
2023/02/11 02:41:34;;;;;;;74.32;35.40;;;6.50;99.90;;;;;;5092677;28;20032;-67
2023/02/11 02:44:01;;;;;;;71.43;35.60;;;6.40;99.90;;;;;;5110871;28;20035;-67
2023/02/11 02:46:29;;;;;;;74.50;35.45;;;6.40;99.90;;;;;;5110733;28;20081;-67
2023/02/11 02:48:56;;;;;;;70.65;35.65;;;6.50;99.90;;;;;;5110920;28;20023;-67
2023/02/11 02:54:35;;;;;;;75.15;35.42;;;6.50;99.90;;;;;;5111180;27;20380;-67
2023/02/11 02:57:35;;;;;;;69.40;36.03;;;6.40;99.90;;;;;;5110990;28;20027;-67
2023/02/11 03:00:42;;;;;;;70.97;35.22;;;6.50;99.90;;;;;;5111117;28;20107;-67
2023/02/11 03:03:36;;;;;;;71.00;34.42;;;6.50;99.90;;;;;;5110838;28;20397;-67
2023/02/11 03:06:11;;;;;;;66.45;35.30;;;6.50;99.90;;;;;;5110890;28;20039;-68
2023/02/11 03:08:44;;;;;;;75.35;34.60;;;6.50;99.90;;;;;;5110609;27;20050;-68
2023/02/11 03:11:13;;;;;;;70.13;33.40;;;6.50;99.90;;;;;;5110857;28;20059;-68
2023/02/11 03:13:41;;;;;;;69.22;34.42;;;6.40;99.90;;;;;;5110716;28;20039;-67
2023/02/11 03:16:12;;;;;;;60.65;31.95;;;6.50;99.90;;;;;;5110929;28;20093;-67
2023/02/11 03:18:42;;;;;;;72.05;35.75;;;6.50;99.90;;;;;;5110693;28;20389;-67
2023/02/11 03:21:10;;;;;;;74.57;35.65;;;6.50;99.90;;;;;;5110868;28;20529;-67
2023/02/11 03:23:41;;;;;;;72.97;34.60;;;6.50;99.90;;;;;;5110644;28;20539;-67
2023/02/11 03:26:17;;;;;;;70.63;34.92;;;6.50;99.90;;;;;;5110552;28;20048;-68
2023/02/11 03:29:08;;;;;;;67.25;34.28;;;6.50;99.90;;;;;;5110464;28;20481;-67
2023/02/11 03:32:01;;;;;;;73.85;35.53;;;6.50;99.90;;;;;;5110419;28;20420;-67
2023/02/11 03:34:47;;;;;;;56.65;27.77;;;6.50;99.90;;;;;;5110619;28;20030;-67
2023/02/11 03:37:26;;;;;;;69.75;34.55;;;6.50;99.90;;;;;;5109160;28;20027;-67
2023/02/11 03:40:05;;;;;;;70.85;35.17;;;6.40;99.90;;;;;;5110213;28;20049;-67
2023/02/11 03:42:37;;;;;;;60.85;33.65;;;6.40;99.90;;;;;;5110166;28;20023;-67
2023/02/11 03:45:08;;;;;;;66.70;34.97;;;6.40;99.90;;;;;;5109154;28;20031;-67
2023/02/11 03:47:38;;;;;;;66.25;35.00;;;6.40;99.90;;;;;;5110204;28;20164;-67
2023/02/11 03:50:06;;;;;;;72.95;34.17;;;6.40;99.90;;;;;;5110311;28;20028;-67
2023/02/11 03:52:34;;;;;;;70.30;35.80;;;6.40;99.90;;;;;;5109798;28;20074;-67
2023/02/11 03:55:02;;;;;;;70.47;34.58;;;6.40;99.90;;;;;;5110164;28;20485;-67
2023/02/11 03:57:28;;;;;;;66.80;34.10;;;6.40;99.90;;;;;;5109997;28;20027;-67
2023/02/11 03:59:57;;;;;;;69.30;35.42;;;6.40;99.90;;;;;;5109826;28;20032;-67
2023/02/11 04:02:27;;;;;;;73.38;36.10;;;6.40;99.90;;;;;;5109995;28;20115;-67
2023/02/11 04:04:53;;;;;;;71.97;37.67;;;6.40;99.90;;;;;;5099597;28;20024;-67
2023/02/11 04:07:19;;;;;;;71.00;35.85;;;6.30;99.90;;;;;;5096158;28;20028;-67
2023/02/11 04:09:44;;;;;;;74.88;36.95;;;6.30;99.90;;;;;;5096155;28;20032;-67
2023/02/11 04:12:10;;;;;;;78.93;37.20;;;6.30;99.90;;;;;;5096228;28;20492;-67
2023/02/11 04:14:35;;;;;;;74.50;38.00;;;6.30;99.90;;;;;;5096219;28;20025;-67
2023/02/11 04:17:01;;;;;;;75.53;39.72;;;6.30;99.90;;;;;;5096085;28;20492;-67
2023/02/11 04:19:27;;;;;;;74.80;39.33;;;6.30;99.90;;;;;;5096262;28;20040;-67
2023/02/11 04:21:52;;;;;;;80.80;39.40;;;6.30;99.90;;;;;;5096022;28;20269;-66
2023/02/11 04:24:18;;;;;;;76.55;39.00;;;6.30;99.90;;;;;;5095702;28;20529;-67
2023/02/11 04:26:43;;;;;;;84.43;40.22;;;6.30;99.90;;;;;;5095662;28;20120;-67
2023/02/11 04:29:09;;;;;;;87.57;40.28;;;6.30;99.90;;;;;;5095772;28;20107;-67
2023/02/11 04:31:34;;;;;;;75.97;39.50;;;6.40;99.90;;;;;;5095943;28;20032;-67
2023/02/11 04:34:00;;;;;;;78.10;38.83;;;6.30;99.90;;;;;;5095391;28;20024;-67
2023/02/11 04:36:25;;;;;;;83.47;40.70;;;6.30;99.90;;;;;;5095544;28;20020;-68
2023/02/11 04:38:51;;;;;;;81.78;42.58;;;6.30;99.90;;;;;;5095615;28;20028;-67
2023/02/11 04:41:16;;;;;;;82.20;41.50;;;6.30;99.90;;;;;;5075247;28;20110;-68
2023/02/11 04:43:42;;;;;;;85.72;42.75;;;6.30;99.90;;;;;;5075427;28;20033;-66
2023/02/11 04:46:07;;;;;;;93.75;44.95;;;6.30;99.90;;;;;;5075253;28;20046;-67
2023/02/11 04:48:34;;;;;;;91.72;44.85;;;6.30;99.90;;;;;;5075180;28;20060;-67
2023/02/11 04:51:00;;;;;;;82.93;43.95;;;6.30;99.90;;;;;;5075232;28;20389;-66
2023/02/11 04:53:26;;;;;;;103.53;44.65;;;6.30;99.90;;;;;;5074851;28;20071;-67
2023/02/11 04:55:51;;;;;;;89.80;44.22;;;6.30;99.90;;;;;;5075213;28;20020;-67
2023/02/11 04:58:18;;;;;;;98.75;47.30;;;6.20;99.90;;;;;;5074964;28;20020;-67
2023/02/11 05:00:43;;;;;;;98.88;45.65;;;6.20;99.90;;;;;;5074962;28;20443;-67
2023/02/11 05:03:09;;;;;;;90.57;45.13;;;6.20;99.90;;;;;;5075066;28;20056;-67
2023/02/11 05:05:38;;;;;;;100.38;47.55;;;6.20;99.90;;;;;;5074798;28;20085;-66
2023/02/11 05:08:04;;;;;;;98.15;47.42;;;6.20;99.90;;;;;;5074796;28;20494;-67
2023/02/11 05:10:29;;;;;;;100.72;49.38;;;6.20;99.90;;;;;;5074949;28;20039;-67
2023/02/11 05:12:55;;;;;;;96.88;47.17;;;6.20;99.90;;;;;;5074340;28;20032;-66
2023/02/11 05:15:20;;;;;;;106.25;50.20;;;6.20;99.90;;;;;;5073848;28;20506;-68
2023/02/11 05:17:46;;;;;;;105.15;48.15;;;6.20;99.90;;;;;;5074291;28;20024;-68
2023/02/11 05:20:11;;;;;;;113.93;50.15;;;6.10;99.90;;;;;;5074524;28;20138;-67
2023/02/11 05:22:37;;;;;;;114.72;52.53;;;6.10;99.90;;;;;;5074509;28;20032;-68
2023/02/11 05:25:02;;;;;;;115.47;54.33;;;6.20;99.90;;;;;;5074635;28;20043;-67
2023/02/11 05:27:28;;;;;;;111.13;53.17;;;6.10;99.90;;;;;;5074415;28;20025;-67
2023/02/11 05:29:54;;;;;;;117.07;52.50;;;6.10;99.90;;;;;;5074428;28;20131;-66
2023/02/11 05:32:19;;;;;;;101.65;50.75;;;6.10;99.90;;;;;;5074184;28;20525;-66
2023/02/11 05:34:45;;;;;;;107.90;51.35;;;6.10;99.90;;;;;;5074201;28;20050;-67
2023/02/11 05:37:10;;;;;;;113.82;50.25;;;6.10;99.90;;;;;;5074412;28;20024;-67
2023/02/11 05:39:36;;;;;;;110.03;52.90;;;6.00;99.90;;;;;;5074147;28;20107;-67
2023/02/11 05:42:01;;;;;;;111.07;52.38;;;6.00;99.90;;;;;;5074145;28;20032;-67
2023/02/11 05:44:27;;;;;;;107.72;52.15;;;6.00;99.90;;;;;;5074102;28;20161;-67
2023/02/11 05:46:52;;;;;;;106.28;52.95;;;6.00;99.90;;;;;;5073960;28;20052;-67
2023/02/11 05:49:18;;;;;;;115.63;53.85;;;6.00;99.90;;;;;;5074149;28;20028;-67
2023/02/11 05:51:44;;;;;;;109.13;52.65;;;6.00;99.90;;;;;;5073867;28;20025;-67
2023/02/11 05:54:09;;;;;;;117.55;54.53;;;6.00;99.90;;;;;;5073881;28;20477;-67
2023/02/11 05:56:35;;;;;;;115.03;54.40;;;5.90;99.90;;;;;;5072534;28;20016;-68
2023/02/11 05:59:00;;;;;;;122.72;55.83;;;5.90;99.90;;;;;;5073937;28;20157;-67
2023/02/11 06:01:26;;;;;;;120.38;54.60;;;5.90;99.90;;;;;;5073697;28;20025;-68
2023/02/11 06:03:51;;;;;;;121.35;56.30;;;5.90;99.90;;;;;;5073650;28;20223;-67
2023/02/11 06:06:17;;;;;;;126.97;55.95;;;5.90;99.90;;;;;;5073857;28;20033;-67
2023/02/11 06:08:42;;;;;;;125.13;56.05;;;5.90;99.90;;;;;;5073668;28;20417;-67
2023/02/11 06:11:08;;;;;;;121.10;56.38;;;5.90;99.90;;;;;;5073591;28;20477;-68
2023/02/11 06:13:34;;;;;;;124.03;56.72;;;5.90;99.90;;;;;;5073506;28;20036;-68
2023/02/11 06:16:01;;;;;;;127.60;59.10;;;5.90;99.90;;;;;;5073512;28;20078;-67
2023/02/11 06:18:28;;;;;;;134.02;60.33;;;5.90;99.90;;;;;;5073454;28;20103;-67
2023/02/11 06:20:54;;;;;;;135.60;57.90;;;5.90;99.90;;;;;;5073444;28;20016;-67
2023/02/11 06:23:19;;;;;;;135.55;57.63;;;5.90;99.90;;;;;;5073421;28;20394;-67
2023/02/11 06:25:45;;;;;;;128.18;58.63;;;5.90;99.90;;;;;;5073195;28;20055;-67
2023/02/11 06:28:10;;;;;;;134.27;59.70;;;5.90;99.90;;;;;;5073301;28;20036;-67
2023/02/11 06:30:37;;;;;;;131.52;58.63;;;5.90;99.90;;;;;;5073355;28;20402;-67
2023/02/11 06:33:03;;;;;;;137.25;59.63;;;5.90;99.90;;;;;;5073344;28;20504;-67
2023/02/11 06:35:28;;;;;;;146.27;60.70;;;5.90;99.90;;;;;;5073350;28;20020;-67
2023/02/11 06:37:54;;;;;;;138.68;60.55;;;5.90;99.90;;;;;;5073181;28;20032;-67
2023/02/11 06:40:19;;;;;;;138.20;59.63;;;5.90;99.90;;;;;;5073155;28;20032;-68
2023/02/11 06:42:45;;;;;;;135.23;61.45;;;5.90;99.90;;;;;;5073381;28;20031;-68
2023/02/11 06:45:12;;;;;;;148.93;60.38;;;5.90;99.90;;;;;;5073158;28;20508;-67
2023/02/11 06:47:38;;;;;;;139.52;60.13;;;5.90;99.90;;;;;;5073081;28;20040;-68
2023/02/11 06:50:06;;;;;;;138.70;61.58;;;5.90;99.90;;;;;;5073380;28;20028;-67
2023/02/11 06:52:32;;;;;;;142.90;62.38;;;5.90;99.90;;;;;;5071778;28;20406;-67
2023/02/11 06:54:58;;;;;;;155.13;63.47;;;5.90;99.90;;;;;;5071885;28;20397;-67
2023/02/11 06:57:23;;;;;;;149.32;62.60;;;5.90;99.90;;;;;;5073013;28;20112;-67
2023/02/11 06:59:49;;;;;;;143.68;60.50;;;5.90;99.90;;;;;;5072967;28;20036;-67
2023/02/11 07:02:14;;;;;;;157.05;63.53;;;5.90;99.90;;;;;;5073185;28;20063;-67
2023/02/11 07:04:40;;;;;;;156.90;65.25;;;5.90;99.90;;;;;;5073244;28;20021;-67
2023/02/11 07:07:06;;;;;;;146.35;60.92;;;5.90;99.90;;;;;;5072929;28;20048;-67
2023/02/11 07:09:31;;;;;;;155.55;63.95;;;5.90;99.90;;;;;;5073014;28;20394;-67
2023/02/11 07:11:57;;;;;;;147.70;63.90;;;5.90;99.90;;;;;;5072754;28;20065;-67
2023/02/11 07:14:22;;;;;;;147.95;62.88;;;5.90;99.90;;;;;;5072850;28;20482;-67
2023/02/11 07:16:48;;;;;;;154.02;65.55;;;5.90;99.90;;;;;;5072988;28;20051;-67
2023/02/11 07:19:13;;;;;;;159.02;64.22;;;5.90;99.90;;;;;;5072853;28;20029;-67
2023/02/11 07:21:39;;;;;;;138.88;60.55;;;5.90;99.90;;;;;;5072902;28;20036;-67
2023/02/11 07:24:07;;;;;;;153.35;63.28;;;5.90;99.90;;;;;;5072791;28;20042;-68
2023/02/11 07:26:33;;;;;;;159.98;65.38;;;5.90;99.90;;;;;;5072875;28;20398;-68
2023/02/11 07:28:59;;;;;;;161.48;64.93;;;5.90;99.90;;;;;;5072824;28;20112;-68
2023/02/11 07:31:27;;;;;;;173.40;68.50;;;5.90;99.90;;;;;;5072946;28;20036;-67
2023/02/11 07:33:55;;;;;;;164.45;64.85;;;6.00;99.90;;;;;;5072639;28;20386;-67
2023/02/11 07:36:21;;;;;;;165.13;68.55;;;5.90;99.90;;;;;;5072670;28;20024;-68
2023/02/11 07:38:47;;;;;;;167.85;66.28;;;5.90;99.90;;;;;;5073088;28;20467;-67
2023/02/11 07:41:16;;;;;;;171.68;68.72;;;6.00;99.90;;;;;;5076427;28;20043;-67
2023/02/11 07:43:42;;;;;;;164.43;66.03;;;5.90;99.90;;;;;;5076526;28;20063;-67
2023/02/11 07:46:11;;;;;;;167.10;67.78;;;6.00;99.90;;;;;;5076381;28;20542;-67
2023/02/11 07:48:36;;;;;;;159.98;67.13;;;6.00;99.90;;;;;;5076361;28;20032;-67
2023/02/11 07:51:23;;;;;;;167.63;67.40;;;6.00;99.90;;;;;;5076443;28;20386;-67
2023/02/11 07:53:50;;;;;;;170.13;67.47;;;6.00;99.90;;;;;;5075953;28;20101;-67
2023/02/11 07:56:17;;;;;;;174.43;67.53;;;6.00;99.90;;;;;;5076303;28;20016;-67
2023/02/11 07:58:43;;;;;;;174.00;65.32;;;6.00;99.90;;;;;;5076108;28;20025;-67
2023/02/11 08:01:11;;;;;;;159.18;65.95;;;6.00;99.90;;;;;;5074862;28;20035;-67
2023/02/11 08:03:37;;;;;;;166.52;65.82;;;6.00;99.90;;;;;;5075937;28;20028;-67
2023/02/11 08:06:05;;;;;;;173.20;67.20;;;6.10;99.90;;;;;;5076009;28;20024;-67
2023/02/11 08:08:31;;;;;;;167.55;66.70;;;6.10;99.90;;;;;;5076096;28;20575;-67
2023/02/11 08:10:57;;;;;;;177.02;66.95;;;6.10;99.90;;;;;;5075816;28;20036;-67
2023/02/11 08:13:22;;;;;;;169.68;66.93;;;6.10;99.90;;;;;;5075788;28;20036;-67
2023/02/11 08:15:48;;;;;;;169.68;67.30;;;6.10;99.90;;;;;;5075742;28;20027;-69
2023/02/11 08:18:14;;;;;;;166.80;66.32;;;6.10;99.90;;;;;;5075714;28;20020;-68
2023/02/11 08:20:39;;;;;;;180.50;68.50;;;6.10;99.90;;;;;;5075707;28;20033;-68
2023/02/11 08:23:06;;;;;;;177.27;69.63;;;6.10;99.90;;;;;;5075729;28;20032;-68
2023/02/11 08:25:32;;;;;;;183.00;69.30;;;6.10;99.90;;;;;;5075784;28;20543;-68
2023/02/11 08:27:58;;;;;;;174.18;70.03;;;6.10;99.90;;;;;;5075685;28;20040;-68
2023/02/11 08:30:24;;;;;;;173.63;70.20;;;6.10;99.90;;;;;;5075694;28;20020;-68
2023/02/11 08:32:50;;;;;;;173.63;69.45;;;6.10;99.90;;;;;;5075402;28;20093;-68
2023/02/11 08:35:15;;;;;;;165.82;69.72;;;6.20;99.90;;;;;;5075462;28;20023;-68
2023/02/11 08:37:41;;;;;;;185.65;70.20;;;6.20;99.90;;;;;;5075395;28;20060;-68
2023/02/11 08:40:07;;;;;;;182.98;70.07;;;6.20;99.90;;;;;;5075330;28;20021;-68
2023/02/11 08:42:32;;;;;;;182.70;70.07;;;6.20;99.90;;;;;;5075402;28;20539;-68
2023/02/11 08:44:58;;;;;;;178.88;71.32;;;6.20;99.90;;;;;;5075199;28;20429;-68
2023/02/11 08:47:23;;;;;;;175.02;68.43;;;6.20;99.90;;;;;;5075205;28;20051;-68
2023/02/11 08:49:49;;;;;;;194.73;71.53;;;6.30;99.90;;;;;;5075243;28;20032;-68
2023/02/11 08:52:14;;;;;;;188.13;72.50;;;6.30;99.90;;;;;;5074877;28;20083;-68
2023/02/11 08:54:40;;;;;;;191.73;73.07;;;6.30;99.90;;;;;;5075083;28;20417;-68
2023/02/11 08:57:06;;;;;;;176.05;72.00;;;6.30;99.90;;;;;;5075045;28;20478;-69
2023/02/11 08:59:32;;;;;;;187.93;72.38;;;6.30;99.90;;;;;;5075176;28;20031;-68
2023/02/11 09:01:57;;;;;;;174.40;70.25;;;6.30;99.90;;;;;;5075114;28;20044;-69
2023/02/11 09:04:23;;;;;;;191.52;71.63;;;6.30;99.90;;;;;;5074837;28;20052;-68
2023/02/11 09:06:48;;;;;;;179.23;68.72;;;6.40;99.90;;;;;;5074886;28;20103;-68
2023/02/11 09:09:15;;;;;;;181.40;69.78;;;6.40;99.90;;;;;;5074481;28;20103;-68
2023/02/11 09:11:43;;;;;;;188.98;72.32;;;6.40;99.90;;;;;;5074468;28;20483;-68
2023/02/11 09:14:18;;;;;;;175.20;67.85;;;6.50;99.90;;;;;;5074431;28;20170;-68
2023/02/11 09:16:44;;;;;;;169.68;65.47;;;6.50;99.90;;;;;;5073744;28;20025;-68
2023/02/11 09:19:10;;;;;;;199.50;73.15;;;6.60;99.90;;;;;;5074828;28;20047;-68
2023/02/11 09:21:36;;;;;;;186.30;69.97;;;6.50;99.90;;;;;;5074597;28;20051;-68
2023/02/11 09:24:01;;;;;;;178.35;69.50;;;6.50;99.90;;;;;;5074336;28;20032;-68
2023/02/11 09:26:31;;;;;;;172.70;66.40;;;6.60;99.90;;;;;;5074474;28;20099;-68
2023/02/11 09:28:57;;;;;;;175.93;67.50;;;6.70;99.90;;;;;;5074487;28;20471;-68
2023/02/11 09:31:24;;;;;;;190.07;67.25;;;6.70;99.90;;;;;;5073262;28;20032;-68
2023/02/11 09:33:52;;;;;;;182.38;68.90;;;6.70;99.90;;;;;;5074198;28;20483;-68
2023/02/11 09:36:21;;;;;;;174.10;68.35;;;6.80;99.90;;;;;;5074202;28;20070;-68
2023/02/11 09:38:47;;;;;;;180.70;68.97;;;6.80;99.90;;;;;;5074197;28;20020;-68
2023/02/11 09:41:52;;;;;;;182.50;69.30;;;6.80;99.90;;;;;;5073023;28;20090;-68
2023/02/11 09:44:23;;;;;;;178.90;69.03;;;6.80;99.90;;;;;;5073897;28;20028;-68
2023/02/11 09:47:00;;;;;;;179.43;66.32;;;6.90;99.90;;;;;;5074046;28;20025;-68
2023/02/11 09:49:37;;;;;;;177.45;67.97;;;6.90;99.90;;;;;;5074044;28;20086;-68
2023/02/11 09:52:15;;;;;;;175.82;66.53;;;6.90;99.90;;;;;;5073892;28;20486;-68
2023/02/11 09:54:55;;;;;;;183.90;68.03;;;6.90;99.90;;;;;;5073964;28;20032;-68
2023/02/11 09:57:21;;;;;;;181.32;68.38;;;6.90;99.90;;;;;;5073971;28;20020;-68
2023/02/11 09:59:48;;;;;;;181.38;70.00;;;6.90;99.90;;;;;;5074007;28;20017;-68
2023/02/11 10:02:28;;;;;;;172.02;66.22;;;6.90;99.90;;;;;;5073268;28;20029;-68
2023/02/11 10:08:08;;;;;;;169.40;65.47;;;6.90;99.90;;;;;;5111039;27;20384;-67
2023/02/11 10:11:01;;;;;;;179.52;67.57;;;7.00;99.90;;;;;;5110931;28;20405;-67
2023/02/11 10:13:43;;;;;;;178.20;68.10;;;7.00;99.90;;;;;;5110860;28;20020;-68
2023/02/11 10:16:27;;;;;;;179.35;67.00;;;7.00;99.90;;;;;;5107066;28;20020;-67
2023/02/11 10:19:32;;;;;;;177.15;65.68;;;7.00;99.90;;;;;;5100983;28;20036;-68
2023/02/11 10:22:11;;;;;;;170.27;66.80;;;7.10;99.90;;;;;;5100705;28;20020;-68
2023/02/11 10:24:37;;;;;;;186.27;69.15;;;7.10;99.90;;;;;;5100211;28;20060;-68
2023/02/11 10:27:16;;;;;;;176.55;67.32;;;7.10;99.90;;;;;;5103104;28;20390;-68
2023/02/11 10:29:49;;;;;;;181.70;68.65;;;7.10;99.90;;;;;;5108064;28;20473;-68
2023/02/11 10:32:29;;;;;;;176.57;66.30;;;7.20;99.90;;;;;;5110015;28;20030;-68
2023/02/11 10:35:00;;;;;;;187.45;67.15;;;7.10;99.90;;;;;;5095892;28;20111;-68
2023/02/11 10:37:26;;;;;;;166.43;65.03;;;7.20;99.90;;;;;;5099244;28;20389;-68
2023/02/11 10:39:51;;;;;;;182.55;68.55;;;7.20;99.90;;;;;;5106097;28;20036;-67
2023/02/11 10:42:17;;;;;;;177.75;68.35;;;7.10;99.90;;;;;;5108752;28;20031;-67
2023/02/11 10:45:02;;;;;;;179.55;67.40;;;7.10;99.90;;;;;;5110015;28;20395;-67
2023/02/11 10:47:33;;;;;;;170.35;65.70;;;7.20;99.90;;;;;;5106408;28;20035;-68
2023/02/11 10:50:02;;;;;;;175.82;66.20;;;7.20;99.90;;;;;;5104039;28;20537;-66
2023/02/11 10:52:29;;;;;;;176.60;70.35;;;7.20;99.90;;;;;;5100054;28;20434;-67
2023/02/11 10:54:59;;;;;;;164.30;65.60;;;7.20;99.90;;;;;;5093235;28;20043;-67
2023/02/11 10:57:30;;;;;;;172.68;67.72;;;7.20;99.90;;;;;;5101013;28;20032;-67
2023/02/11 11:00:20;;;;;;;168.65;66.50;;;7.20;99.90;;;;;;5108760;28;20020;-67
2023/02/11 11:02:54;;;;;;;166.63;65.55;;;7.30;99.90;;;;;;5096296;28;20036;-67
2023/02/11 11:05:28;;;;;;;169.32;66.25;;;7.30;99.90;;;;;;5089096;28;20100;-68
2023/02/11 11:07:57;;;;;;;169.13;66.05;;;7.30;99.90;;;;;;5089863;28;20024;-68
2023/02/11 11:13:38;;;;;;;169.02;67.03;;;7.30;99.90;;;;;;5108727;27;20432;-67
2023/02/11 11:19:12;;;;;;;164.10;67.25;;;7.40;99.90;;;;;;5083831;28;20406;-68
2023/02/11 11:21:45;;;;;;;167.93;65.88;;;7.50;99.90;;;;;;5072370;28;20040;-68
2023/02/11 11:24:19;;;;;;;173.90;70.93;;;7.50;99.90;;;;;;5070189;28;20051;-68
2023/02/11 11:26:49;;;;;;;167.73;67.47;;;7.50;99.90;;;;;;5075916;28;20501;-68
2023/02/11 11:29:33;;;;;;;169.20;67.03;;;7.50;99.90;;;;;;5077919;28;20051;-68
2023/02/11 11:32:03;;;;;;;175.55;68.68;;;7.60;99.90;;;;;;5063921;28;20070;-67
2023/02/11 11:34:34;;;;;;;175.57;68.38;;;7.50;99.90;;;;;;5075319;28;20528;-68
2023/02/11 11:37:08;;;;;;;172.55;68.43;;;7.60;99.90;;;;;;5071521;28;20539;-69
2023/02/11 11:39:34;;;;;;;165.80;68.90;;;7.50;99.90;;;;;;5082581;28;20044;-68
2023/02/11 11:42:04;;;;;;;163.82;66.68;;;7.60;99.90;;;;;;5069772;28;20075;-68
2023/02/11 11:44:33;;;;;;;178.32;67.95;;;7.60;99.90;;;;;;5081766;28;20036;-68
2023/02/11 11:47:19;;;;;;;175.40;71.55;;;7.70;99.90;;;;;;5073547;28;20032;-68
2023/02/11 11:50:09;;;;;;;158.90;65.97;;;7.60;99.90;;;;;;5081924;28;20032;-67
2023/02/11 11:52:42;;;;;;;163.07;68.13;;;7.70;99.90;;;;;;5086133;28;20035;-68
2023/02/11 11:55:20;;;;;;;166.48;67.55;;;7.70;99.90;;;;;;5089071;28;20057;-67
2023/02/11 11:57:48;;;;;;;156.10;63.80;;;7.70;99.90;;;;;;5071057;28;20505;-68
2023/02/11 12:00:22;;;;;;;159.35;66.43;;;7.70;99.90;;;;;;5084926;28;20062;-67
2023/02/11 12:03:11;;;;;;;153.75;65.65;;;7.70;99.90;;;;;;5069611;28;20036;-68
2023/02/11 12:08:50;;;;;;;153.23;62.83;;;7.70;99.90;;;;;;5110732;27;20416;-68
2023/02/11 12:11:29;;;;;;;148.27;62.20;;;7.70;99.90;;;;;;5105006;28;20024;-68
2023/02/11 12:14:07;;;;;;;157.63;63.47;;;7.70;99.90;;;;;;5082758;28;20017;-68
2023/02/11 12:17:06;;;;;;;153.63;64.00;;;7.80;99.90;;;;;;5086202;28;20032;-68
2023/02/11 12:19:58;;;;;;;155.35;64.38;;;7.80;99.90;;;;;;5087468;28;20395;-68
2023/02/11 12:22:51;;;;;;;142.55;62.30;;;7.90;99.90;;;;;;5102902;28;20542;-68
2023/02/11 12:25:28;;;;;;;139.10;58.87;;;8.00;99.90;;;;;;5083860;28;20039;-68
2023/02/11 12:28:14;;;;;;;133.77;60.38;;;8.00;99.90;;;;;;5076899;28;20031;-68
2023/02/11 12:30:59;;;;;;;130.20;58.38;;;8.00;99.90;;;;;;5102473;28;20971;-68
2023/02/11 12:33:46;;;;;;;132.68;59.25;;;8.00;99.90;;;;;;5095594;28;20027;-68
2023/02/11 12:36:26;;;;;;;127.47;59.88;;;8.10;99.90;;;;;;5096154;27;20024;-69
2023/02/11 12:39:13;;;;;;;126.85;57.65;;;8.10;99.90;;;;;;5081638;28;20104;-70
2023/02/11 12:45:07;;;;;;;125.82;53.00;;;8.30;99.90;;;;;;5075990;28;20386;-68
2023/02/11 12:53:34;;;;;;;105.38;48.70;;;8.40;99.90;;;;;;5111043;27;20380;-68
2023/02/11 12:56:07;;;;;;;103.60;49.55;;;8.30;99.90;;;;;;5091525;28;20034;-68
2023/02/11 12:58:35;;;;;;;106.47;49.67;;;8.40;99.90;;;;;;5097013;28;20440;-69
2023/02/11 13:01:07;;;;;;;103.72;50.15;;;8.40;99.90;;;;;;5098104;28;20080;-67
2023/02/11 13:03:39;;;;;;;108.45;48.72;;;8.40;99.90;;;;;;5107077;28;20037;-69
2023/02/11 13:06:09;;;;;;;106.60;48.55;;;8.40;99.90;;;;;;5106498;28;20115;-67
2023/02/11 13:08:41;;;;;;;103.03;48.45;;;8.30;99.90;;;;;;5105956;28;20485;-67
2023/02/11 13:11:13;;;;;;;93.80;46.15;;;8.30;99.90;;;;;;5107937;28;20022;-69
2023/02/11 13:14:04;;;;;;;103.37;46.67;;;8.40;99.90;;;;;;5090302;28;20077;-69
2023/02/11 13:16:43;;;;;;;91.15;42.85;;;8.40;99.90;;;;;;5102248;28;20073;-69
2023/02/11 13:22:26;;;;;;;97.13;42.30;;;8.30;99.90;;;;;;5106230;27;20441;-68